createdAt,value
2022-09-12T00:04:12.413Z,12.21
2022-09-12T00:09:19.734Z,12.22
2022-09-12T00:14:27.754Z,12.36
2022-09-12T00:19:34.551Z,12.57
2022-09-12T00:24:42.518Z,12.76
2022-09-12T00:29:50.404Z,12.88
2022-09-12T00:34:57.123Z,12.8
2022-09-12T00:40:04.169Z,12.8
2022-09-12T00:45:10.640Z,12.79
2022-09-12T00:50:17.816Z,12.66
2022-09-12T00:55:25.929Z,12.57
2022-09-12T01:00:33.599Z,12.7
2022-09-12T01:05:41.996Z,12.57
2022-09-12T01:10:49.680Z,12.52
2022-09-12T01:15:57.577Z,12.71
2022-09-12T01:21:05.374Z,12.74
2022-09-12T01:26:13.396Z,12.66
2022-09-12T01:31:20.533Z,12.51
2022-09-12T01:36:27.947Z,12.54
2022-09-12T01:41:37.003Z,12.46
2022-09-12T01:46:44.933Z,12.46
2022-09-12T01:51:52.918Z,12.36
2022-09-12T01:56:59.732Z,12.47
2022-09-12T02:02:08.081Z,12.39
2022-09-12T02:07:15.859Z,12.5
2022-09-12T02:12:21.974Z,12.49
2022-09-12T02:17:30.496Z,12.34
2022-09-12T02:22:38.370Z,12.19
2022-09-12T02:27:45.584Z,12.16
2022-09-12T02:32:53.837Z,12.24
2022-09-12T02:38:01.198Z,12.22
2022-09-12T02:43:08.805Z,12.16
2022-09-12T02:48:15.070Z,12.29
2022-09-12T02:53:22.341Z,12.34
2022-09-12T02:58:30.285Z,12.26
2022-09-12T03:03:38.512Z,12.15
2022-09-12T03:08:46.871Z,12.14
2022-09-12T03:13:54.171Z,12.16
2022-09-12T03:19:00.698Z,12.2
2022-09-12T03:24:09.688Z,12.22
2022-09-12T03:29:17.362Z,12.16
2022-09-12T03:34:24.316Z,12.11
2022-09-12T03:39:32.139Z,12.1
2022-09-12T03:44:39.289Z,12.12
2022-09-12T03:49:47.595Z,12.07
2022-09-12T03:54:54.976Z,11.94
2022-09-12T04:00:02.708Z,11.83
2022-09-12T04:05:11.280Z,11.75
2022-09-12T04:10:20.131Z,11.58
2022-09-12T04:15:27.853Z,11.4
2022-09-12T04:20:41.161Z,11.33
2022-09-12T04:25:47.920Z,11.36
2022-09-12T04:30:55.608Z,11.32
2022-09-12T04:36:02.780Z,11.28
2022-09-12T04:41:10.011Z,11.32
2022-09-12T04:46:17.854Z,11.33
2022-09-12T04:51:25.019Z,11.38
2022-09-12T04:56:32.213Z,11.42
2022-09-12T05:01:40.571Z,11.58
2022-09-12T05:06:47.902Z,11.7
2022-09-12T05:11:56.405Z,11.88
2022-09-12T05:17:04.286Z,12.04
2022-09-12T05:22:18.456Z,12.14
2022-09-12T05:27:25.779Z,12.2
2022-09-12T05:32:34.170Z,12.26
2022-09-12T05:37:41.338Z,12.34
2022-09-12T05:42:48.891Z,12.47
2022-09-12T05:47:56.396Z,12.74
2022-09-12T05:53:03.575Z,13.05
2022-09-12T05:58:12.037Z,13.43
2022-09-12T06:03:20.543Z,13.7
2022-09-12T06:08:27.107Z,14.03
2022-09-12T06:13:34.294Z,14.36
2022-09-12T06:18:41.162Z,14.63
2022-09-12T06:23:49.585Z,14.66
2022-09-12T06:28:56.876Z,14.96
2022-09-12T06:34:04.382Z,15.06
2022-09-12T06:39:11.575Z,15.22
2022-09-12T06:44:20.668Z,15.1
2022-09-12T06:49:29.962Z,15.18
2022-09-12T06:54:37.124Z,15.13
2022-09-12T06:59:43.612Z,15.08
2022-09-12T07:04:52.047Z,15.26
2022-09-12T07:09:59.927Z,15.47
2022-09-12T07:15:08.381Z,15.76
2022-09-12T07:20:17.450Z,15.94
2022-09-12T07:25:26.636Z,16.14
2022-09-12T07:30:34.844Z,16.36
2022-09-12T07:35:42.435Z,16.75
2022-09-12T07:40:50.310Z,17.21
2022-09-12T07:45:59.142Z,17.24
2022-09-12T07:51:07.708Z,17.23
2022-09-12T07:56:14.646Z,17.3
2022-09-12T08:01:24.008Z,17.38
2022-09-12T08:06:30.941Z,17.5
2022-09-12T08:11:39.056Z,17.76
2022-09-12T08:16:45.658Z,18.02
2022-09-12T08:21:53.295Z,18.29
2022-09-12T08:27:00.729Z,18.2
2022-09-12T08:32:07.963Z,18.07
2022-09-12T08:37:13.819Z,18.53
2022-09-12T08:42:22.046Z,18.89
2022-09-12T08:47:29.846Z,19.67
2022-09-12T08:52:37.001Z,20.12
2022-09-12T08:57:44.521Z,20.17
2022-09-12T09:02:52.090Z,20.26
2022-09-12T09:07:59.581Z,20.44
2022-09-12T09:13:07.046Z,21.14
2022-09-12T09:18:14.636Z,22.35
2022-09-12T09:23:23.453Z,23.24
2022-09-12T09:28:30.485Z,24.08
2022-09-12T09:33:36.859Z,23.54
2022-09-12T09:38:44.061Z,22.97
2022-09-12T09:43:51.901Z,22.89
2022-09-12T09:48:58.661Z,22.85
2022-09-12T09:54:05.911Z,23.36
2022-09-12T09:59:13.353Z,23.69
2022-09-12T10:04:20.801Z,23.2
2022-09-12T10:09:27.832Z,23.67
2022-09-12T10:14:37.006Z,23.64
2022-09-12T10:19:45.767Z,25.07
2022-09-12T10:24:53.366Z,25.4
2022-09-12T10:30:02.506Z,25.66
2022-09-12T10:35:09.000Z,23.52
2022-09-12T10:40:15.581Z,21.94
2022-09-12T10:45:22.136Z,21.67
2022-09-12T10:50:31.769Z,23.54
2022-09-12T10:55:40.527Z,24.39
2022-09-12T11:00:47.963Z,24.66
2022-09-12T11:05:56.954Z,24.61
2022-09-12T11:11:04.098Z,23.14
2022-09-12T11:16:12.936Z,22.54
2022-09-12T11:21:20.744Z,22.14
2022-09-12T11:26:26.794Z,23.67
2022-09-12T11:31:35.005Z,22.24
2022-09-12T11:36:43.607Z,22.88
2022-09-12T11:41:50.414Z,24.53
2022-09-12T11:46:56.890Z,23.64
2022-09-12T11:52:04.802Z,22.75
2022-09-12T11:57:11.929Z,22.14
2022-09-12T12:02:19.817Z,22.35
2022-09-12T12:07:26.939Z,22.6
2022-09-12T12:12:34.136Z,22.46
2022-09-12T12:17:40.736Z,21.84
2022-09-12T12:22:47.957Z,23.83
2022-09-12T12:27:55.708Z,23.49
2022-09-12T12:33:02.328Z,22.38
2022-09-12T12:38:09.523Z,21.68
2022-09-12T12:43:17.320Z,23.18
2022-09-12T12:48:24.587Z,24.7
2022-09-12T12:53:31.743Z,25.69
2022-09-12T12:58:42.813Z,25.64
2022-09-12T13:03:50.003Z,26.11
2022-09-12T13:08:57.815Z,25.7
2022-09-12T13:14:05.303Z,25.46
2022-09-12T13:19:12.535Z,25.78
2022-09-12T13:24:18.914Z,25.48
2022-09-12T13:29:25.335Z,25.71
2022-09-12T13:34:33.305Z,26.39
2022-09-12T13:39:41.423Z,25.88
2022-09-12T13:44:49.233Z,24.53
2022-09-12T13:49:57.333Z,24.68
2022-09-12T13:55:06.424Z,25.83
2022-09-12T14:00:14.324Z,27.14
2022-09-12T14:05:20.862Z,26.64
2022-09-12T14:10:28.740Z,26.71
2022-09-12T14:15:39.196Z,25.66
2022-09-12T14:20:45.015Z,23.88
2022-09-12T14:25:51.593Z,24.54
2022-09-12T14:30:59.246Z,25.73
2022-09-12T14:36:06.616Z,23.7
2022-09-12T14:41:13.534Z,22.72
2022-09-12T14:46:22.613Z,23.43
2022-09-12T14:51:30.938Z,24.1
2022-09-12T14:56:37.986Z,23.42
2022-09-12T15:01:44.752Z,21.78
2022-09-12T15:06:51.784Z,20.85
2022-09-12T15:12:00.227Z,20.22
2022-09-12T15:17:07.425Z,19.94
2022-09-12T15:22:21.613Z,19.8
2022-09-12T15:27:30.082Z,19.7
2022-09-12T15:32:37.761Z,20.19
2022-09-12T15:37:45.197Z,20.4
2022-09-12T15:42:53.579Z,20.62
2022-09-12T15:48:00.681Z,20.5
2022-09-12T15:53:07.454Z,20.42
2022-09-12T15:58:14.973Z,20.02
2022-09-12T16:03:22.544Z,19.76
2022-09-12T16:08:29.839Z,19.5
2022-09-12T16:13:36.958Z,18.96
2022-09-12T16:18:44.646Z,18.38
2022-09-12T16:23:52.580Z,18.08
2022-09-12T16:29:00.287Z,17.7
2022-09-12T16:34:08.135Z,17.3
2022-09-12T16:39:15.461Z,17.0
2022-09-12T16:44:23.227Z,16.72
2022-09-12T16:49:31.131Z,16.4
2022-09-12T16:54:37.992Z,16.18
2022-09-12T16:59:45.529Z,15.92
2022-09-12T17:04:52.720Z,15.7
2022-09-12T17:09:58.656Z,15.48
2022-09-12T17:15:06.089Z,15.2
2022-09-12T17:20:13.621Z,14.83
2022-09-12T17:25:20.252Z,14.54
2022-09-12T17:30:27.465Z,14.32
2022-09-12T17:35:35.768Z,14.16
2022-09-12T17:40:43.644Z,14.03
2022-09-12T17:45:51.661Z,13.88
2022-09-12T17:50:59.416Z,13.7
2022-09-12T17:56:08.603Z,13.72
2022-09-12T18:01:17.292Z,13.58
2022-09-12T18:06:24.895Z,13.52
2022-09-12T18:11:32.079Z,13.54
2022-09-12T18:16:40.857Z,13.62
2022-09-12T18:21:48.127Z,13.46
2022-09-12T18:26:56.256Z,13.36
2022-09-12T18:32:04.033Z,13.08
2022-09-12T18:37:11.260Z,12.9
2022-09-12T18:42:19.669Z,12.78
2022-09-12T18:47:26.977Z,12.6
2022-09-12T18:52:34.424Z,12.51
2022-09-12T18:57:42.585Z,12.47
2022-09-12T19:02:49.981Z,12.32
2022-09-12T19:07:57.098Z,12.29
2022-09-12T19:13:04.970Z,12.26
2022-09-12T19:18:13.833Z,12.18
2022-09-12T19:23:23.578Z,12.2
2022-09-12T19:28:31.025Z,12.24
2022-09-12T19:33:38.902Z,12.14
2022-09-12T19:38:45.439Z,12.12
2022-09-12T19:43:53.265Z,12.02
2022-09-12T19:49:00.478Z,11.98
2022-09-12T20:17:24.648Z,11.65
2022-09-12T20:22:30.016Z,11.5
2022-09-12T20:27:43.935Z,11.44
2022-09-12T20:32:50.096Z,11.46
2022-09-12T20:37:57.376Z,11.34
2022-09-12T20:43:04.767Z,11.3
2022-09-12T20:48:11.778Z,11.21
2022-09-12T20:53:19.261Z,11.35
2022-09-12T20:58:27.975Z,11.42
2022-09-12T21:03:34.711Z,11.28
2022-09-12T21:08:42.839Z,11.2
2022-09-12T21:13:56.731Z,11.04
2022-09-12T21:19:03.925Z,11.12
2022-09-12T21:24:12.458Z,11.05
2022-09-12T21:29:21.200Z,11.08
2022-09-12T21:34:29.306Z,10.94
2022-09-12T21:39:37.859Z,10.85
2022-09-12T21:44:45.780Z,10.9
2022-09-12T21:49:52.837Z,10.9
2022-09-12T21:55:00.210Z,10.85
2022-09-12T22:00:08.209Z,10.78
2022-09-12T22:05:14.830Z,10.78
2022-09-12T22:10:23.570Z,10.92
2022-09-12T22:15:31.972Z,10.92
2022-09-12T22:20:41.108Z,10.89
2022-09-12T22:25:47.766Z,11.02
2022-09-12T22:30:55.485Z,11.03
2022-09-12T22:36:03.250Z,11.06
2022-09-12T22:41:10.648Z,11.0
2022-09-12T22:46:18.232Z,10.96
2022-09-12T22:51:25.030Z,10.92
2022-09-12T22:56:32.696Z,10.89
2022-09-12T23:01:40.327Z,10.78
2022-09-12T23:06:48.098Z,10.66
2022-09-12T23:11:55.589Z,10.66
2022-09-12T23:17:04.441Z,10.46
2022-09-12T23:22:12.097Z,10.39
2022-09-12T23:27:19.898Z,10.26
2022-09-12T23:32:28.939Z,10.12
2022-09-12T23:37:36.998Z,10.0
2022-09-12T23:42:45.141Z,9.88
2022-09-12T23:47:51.759Z,9.96
2022-09-12T23:52:58.470Z,10.03
2022-09-12T23:58:06.905Z,10.23
